Time;durP1;ratioP1;P1;durP2;ratioP2;P2;SDS_P1;SDS_P2;PMS_P1;PMS_P2;Temp;Humidity;BMP_temperature;BMP_pressure;BME280_temperature;BME280_humidity;BME280_pressure;Samples;Min_cycle;Max_cycle;Signal;HPM_P1;HPM_P2
2022/06/30 00:02:01;;;;;;;;;;;24.40;61.60;;;;;;5045924;28;81906;-43
2022/06/30 00:04:26;;;;;;;;;;;24.30;61.50;;;;;;5045644;27;83241;-43
2022/06/30 00:06:52;;;;;;;;;;;24.30;61.40;;;;;;5047803;28;83037;-44
2022/06/30 00:09:18;;;;;;;;;;;24.30;61.40;;;;;;5045842;28;83236;-43
2022/06/30 00:11:44;;;;;;;;;;;24.40;61.40;;;;;;5045685;28;82015;-43
2022/06/30 00:14:09;;;;;;;;;;;24.30;61.40;;;;;;5045941;28;82455;-44
2022/06/30 00:16:35;;;;;;;;;;;24.40;61.50;;;;;;5045753;28;83110;-43
2022/06/30 00:19:01;;;;;;;;;;;24.30;61.40;;;;;;5045257;28;82082;-44
2022/06/30 00:21:26;;;;;;;;;;;24.30;61.40;;;;;;5045984;28;82761;-44
2022/06/30 00:23:52;;;;;;;;;;;24.30;61.40;;;;;;5046182;28;82407;-44
2022/06/30 00:26:17;;;;;;;;;;;24.30;61.40;;;;;;5045378;28;82151;-44
2022/06/30 00:28:43;;;;;;;;;;;24.20;61.30;;;;;;5048422;28;82501;-44
2022/06/30 00:31:08;;;;;;;;;;;24.30;61.40;;;;;;5045212;28;83046;-44
2022/06/30 00:33:34;;;;;;;;;;;24.20;61.40;;;;;;5045364;28;83430;-43
2022/06/30 00:35:59;;;;;;;;;;;24.20;61.40;;;;;;5045396;28;82986;-44
2022/06/30 00:38:25;;;;;;;;;;;24.20;61.40;;;;;;5045471;28;83077;-43
2022/06/30 00:40:50;;;;;;;;;;;24.20;61.40;;;;;;5045579;27;82352;-44
2022/06/30 00:43:16;;;;;;;;;;;24.20;61.30;;;;;;5045280;28;82654;-44
2022/06/30 00:45:42;;;;;;;;;;;24.10;61.40;;;;;;5045042;28;82153;-44
2022/06/30 00:48:08;;;;;;;;;;;24.10;61.40;;;;;;5045830;27;82301;-43
2022/06/30 00:50:34;;;;;;;;;;;24.10;61.40;;;;;;5047966;28;82986;-44
2022/06/30 00:53:02;;;;;;;;;;;24.10;61.40;;;;;;5045637;28;82388;-44
2022/06/30 00:55:29;;;;;;;;;;;24.00;61.30;;;;;;5044529;28;83915;-44
2022/06/30 00:57:55;;;;;;;;;;;24.00;61.40;;;;;;5044971;28;82029;-44
2022/06/30 01:00:20;;;;;;;;;;;24.00;61.40;;;;;;5045130;27;82492;-44
2022/06/30 01:02:47;;;;;;;;;;;24.00;61.40;;;;;;5044945;28;82911;-44
2022/06/30 01:05:13;;;;;;;;;;;24.00;61.40;;;;;;5045249;28;82508;-45
2022/06/30 01:07:39;;;;;;;;;;;24.00;61.40;;;;;;5045173;27;82352;-44
2022/06/30 01:12:49;;;;;;;;;;;23.90;61.30;;;;;;5051621;28;81279;-46
2022/06/30 01:15:15;;;;;;;;;;;23.90;61.40;;;;;;5047879;28;84355;-44
2022/06/30 01:17:41;;;;;;;;;;;23.90;61.40;;;;;;5048473;28;82218;-44
2022/06/30 01:20:07;;;;;;;;;;;23.90;61.40;;;;;;5047602;27;83756;-44
2022/06/30 01:22:33;;;;;;;;;;;23.90;61.40;;;;;;5047931;28;83016;-44
2022/06/30 01:24:58;;;;;;;;;;;23.90;61.40;;;;;;5048497;28;82229;-43
2022/06/30 01:27:24;;;;;;;;;;;23.80;61.40;;;;;;5048332;27;82510;-45
2022/06/30 01:29:53;;;;;;;;;;;23.80;61.50;;;;;;5047963;28;83039;-44
2022/06/30 01:32:19;;;;;;;;;;;23.80;61.50;;;;;;5050824;28;81936;-44
2022/06/30 01:34:44;;;;;;;;;;;23.80;61.40;;;;;;5047933;28;83370;-44
2022/06/30 01:37:10;;;;;;;;;;;23.70;61.40;;;;;;5048876;28;81267;-44
2022/06/30 01:39:35;;;;;;;;;;;23.70;61.40;;;;;;5047908;27;82935;-44
2022/06/30 01:42:01;;;;;;;;;;;23.70;61.30;;;;;;5048074;28;82940;-42
2022/06/30 01:44:27;;;;;;;;;;;23.70;61.50;;;;;;5046746;28;82998;-44
2022/06/30 01:46:52;;;;;;;;;;;23.60;61.40;;;;;;5047851;28;83401;-44
2022/06/30 01:49:18;;;;;;;;;;;23.60;61.60;;;;;;5047966;28;82960;-44
2022/06/30 01:51:44;;;;;;;;;;;23.60;61.60;;;;;;5048062;28;81986;-44
2022/06/30 01:54:09;;;;;;;;;;;23.60;61.50;;;;;;5050600;27;81988;-44
2022/06/30 01:56:35;;;;;;;;;;;23.60;61.40;;;;;;5048005;28;82051;-43
2022/06/30 01:59:01;;;;;;;;;;;23.60;61.50;;;;;;5047700;27;81931;-44
2022/06/30 02:01:26;;;;;;;;;;;23.60;61.40;;;;;;5047790;28;83076;-43
2022/06/30 02:03:52;;;;;;;;;;;23.60;61.30;;;;;;5047803;28;81998;-43
2022/06/30 02:06:17;;;;;;;;;;;23.50;61.40;;;;;;5047601;28;82379;-44
2022/06/30 02:08:43;;;;;;;;;;;23.50;61.40;;;;;;5046889;28;83787;-44
2022/06/30 02:11:08;;;;;;;;;;;23.50;61.50;;;;;;5047562;28;81994;-44
2022/06/30 02:13:34;;;;;;;;;;;23.50;61.50;;;;;;5047635;28;82507;-43
2022/06/30 02:15:59;;;;;;;;;;;23.40;61.40;;;;;;5049753;28;84289;-44
2022/06/30 02:18:25;;;;;;;;;;;23.40;61.40;;;;;;5047650;28;81971;-44
2022/06/30 02:20:50;;;;;;;;;;;23.40;61.40;;;;;;5047327;27;83030;-44
2022/06/30 02:23:16;;;;;;;;;;;23.40;61.50;;;;;;5047581;28;82097;-43
2022/06/30 02:25:42;;;;;;;;;;;23.40;61.50;;;;;;5047910;28;82700;-43
2022/06/30 02:28:08;;;;;;;;;;;23.40;61.40;;;;;;5046916;28;84406;-45
2022/06/30 02:30:34;;;;;;;;;;;23.40;61.50;;;;;;5047149;28;81966;-44
2022/06/30 02:33:00;;;;;;;;;;;23.30;61.50;;;;;;5046826;27;82893;-44
2022/06/30 02:35:25;;;;;;;;;;;23.30;61.50;;;;;;5047099;28;81912;-45
2022/06/30 02:37:51;;;;;;;;;;;23.30;61.50;;;;;;5050049;28;82096;-44
2022/06/30 02:40:17;;;;;;;;;;;23.30;61.40;;;;;;5046875;28;84279;-43
2022/06/30 02:42:42;;;;;;;;;;;23.20;61.50;;;;;;5047355;28;82094;-44
2022/06/30 02:45:09;;;;;;;;;;;23.20;61.50;;;;;;5046455;28;83932;-44
2022/06/30 02:47:35;;;;;;;;;;;23.20;61.50;;;;;;5046927;28;82124;-44
2022/06/30 02:50:05;;;;;;;;;;;23.20;61.50;;;;;;5047359;28;81401;-44
2022/06/30 02:52:31;;;;;;;;;;;23.10;61.50;;;;;;5046828;27;81976;-44
2022/06/30 02:54:57;;;;;;;;;;;23.10;61.40;;;;;;5046860;28;83133;-44
2022/06/30 02:57:22;;;;;;;;;;;23.10;61.40;;;;;;5046383;28;82881;-44
2022/06/30 02:59:48;;;;;;;;;;;23.10;61.40;;;;;;5049269;28;83407;-43
2022/06/30 03:02:13;;;;;;;;;;;23.10;61.40;;;;;;5046915;28;82086;-44
2022/06/30 03:04:39;;;;;;;;;;;23.10;61.40;;;;;;5046994;28;82212;-44
2022/06/30 03:07:04;;;;;;;;;;;23.00;61.50;;;;;;5046471;28;82973;-44
2022/06/30 03:09:30;;;;;;;;;;;23.00;61.60;;;;;;5046853;28;81987;-43
2022/06/30 03:11:55;;;;;;;;;;;23.00;61.70;;;;;;5046935;28;82258;-44
2022/06/30 03:14:21;;;;;;;;;;;23.00;61.60;;;;;;5047079;28;82387;-43
2022/06/30 03:16:46;;;;;;;;;;;23.00;61.60;;;;;;5046716;28;81993;-43
2022/06/30 03:19:12;;;;;;;;;;;23.00;61.60;;;;;;5049253;27;82676;-44
2022/06/30 03:21:38;;;;;;;;;;;22.90;61.50;;;;;;5045807;28;82949;-43
2022/06/30 03:24:03;;;;;;;;;;;22.90;61.60;;;;;;5046554;28;82547;-44
2022/06/30 03:26:29;;;;;;;;;;;22.90;61.50;;;;;;5046294;28;83166;-44
2022/06/30 03:28:54;;;;;;;;;;;22.90;61.50;;;;;;5046392;28;82102;-45
2022/06/30 03:31:20;;;;;;;;;;;22.90;61.60;;;;;;5046277;27;81885;-44
2022/06/30 03:33:45;;;;;;;;;;;22.90;61.50;;;;;;5045769;28;82999;-44
2022/06/30 03:36:11;;;;;;;;;;;22.90;61.60;;;;;;5046122;28;82046;-43
2022/06/30 03:38:36;;;;;;;;;;;22.80;61.50;;;;;;5046688;28;82740;-43
2022/06/30 03:41:02;;;;;;;;;;;22.80;61.60;;;;;;5048934;28;83264;-43
2022/06/30 03:43:27;;;;;;;;;;;22.80;61.50;;;;;;5046429;28;81947;-44
2022/06/30 03:45:53;;;;;;;;;;;22.80;61.50;;;;;;5044898;28;83910;-44
2022/06/30 03:48:18;;;;;;;;;;;22.80;61.60;;;;;;5046234;28;82157;-45
2022/06/30 03:50:44;;;;;;;;;;;22.80;61.60;;;;;;5046323;28;82316;-45
2022/06/30 03:53:09;;;;;;;;;;;22.70;61.60;;;;;;5046286;28;82901;-44
2022/06/30 03:55:39;;;;;;;;;;;22.70;61.60;;;;;;5046265;28;81969;-44
2022/06/30 03:58:07;;;;;;;;;;;22.70;61.60;;;;;;5045956;27;83171;-43
2022/06/30 04:00:34;;;;;;;;;;;22.70;61.60;;;;;;5045690;28;82888;-43
2022/06/30 04:03:00;;;;;;;;;;;22.70;61.60;;;;;;5048927;28;81351;-43
2022/06/30 04:05:26;;;;;;;;;;;22.60;61.70;;;;;;5045633;28;84575;-44
2022/06/30 04:07:51;;;;;;;;;;;22.60;61.70;;;;;;5045686;28;82213;-43
2022/06/30 04:10:18;;;;;;;;;;;22.60;61.70;;;;;;5045243;27;82919;-43
2022/06/30 04:12:43;;;;;;;;;;;22.60;61.70;;;;;;5045481;28;84726;-45
2022/06/30 04:15:09;;;;;;;;;;;22.60;61.60;;;;;;5045707;28;82142;-44
2022/06/30 04:17:35;;;;;;;;;;;22.60;61.70;;;;;;5045843;27;81831;-44
2022/06/30 04:20:01;;;;;;;;;;;22.60;61.60;;;;;;5045697;28;82455;-44
2022/06/30 04:22:27;;;;;;;;;;;22.60;61.60;;;;;;5045907;28;81866;-44
2022/06/30 04:24:52;;;;;;;;;;;22.60;61.60;;;;;;5048423;28;82541;-43
2022/06/30 04:27:18;;;;;;;;;;;22.60;61.60;;;;;;5046126;28;81397;-44
2022/06/30 04:29:43;;;;;;;;;;;22.60;61.70;;;;;;5045298;28;82245;-44
2022/06/30 04:34:53;;;;;;;;;;;22.50;61.60;;;;;;5043466;28;83093;-44
2022/06/30 04:37:19;;;;;;;;;;;22.50;61.70;;;;;;5045619;28;82690;-44
2022/06/30 04:39:44;;;;;;;;;;;22.50;61.70;;;;;;5045069;28;84897;-43
2022/06/30 04:42:10;;;;;;;;;;;22.50;61.60;;;;;;5045394;28;82064;-42
2022/06/30 04:44:35;;;;;;;;;;;22.50;61.70;;;;;;5046517;27;82109;-44
2022/06/30 04:47:01;;;;;;;;;;;22.50;61.70;;;;;;5051541;28;82890;-44
2022/06/30 04:49:26;;;;;;;;;;;22.50;61.60;;;;;;5048945;28;82515;-43
2022/06/30 04:51:52;;;;;;;;;;;22.50;61.80;;;;;;5049353;28;82438;-43
2022/06/30 04:54:17;;;;;;;;;;;22.50;61.80;;;;;;5048533;28;81952;-45
2022/06/30 04:56:43;;;;;;;;;;;22.50;61.90;;;;;;5048890;28;83028;-43
2022/06/30 04:59:08;;;;;;;;;;;22.50;61.80;;;;;;5047785;28;84630;-45
2022/06/30 05:01:34;;;;;;;;;;;22.40;61.80;;;;;;5048814;28;82165;-45
2022/06/30 05:03:59;;;;;;;;;;;22.40;61.90;;;;;;5048821;27;82539;-44
2022/06/30 05:06:25;;;;;;;;;;;22.40;61.90;;;;;;5048541;28;83161;-44
2022/06/30 05:08:50;;;;;;;;;;;22.40;62.00;;;;;;5051319;28;82059;-44
2022/06/30 05:11:16;;;;;;;;;;;22.40;62.00;;;;;;5048471;28;83153;-44
2022/06/30 05:13:41;;;;;;;;;;;22.40;62.10;;;;;;5048501;28;81770;-44
2022/06/30 05:16:07;;;;;;;;;;;22.40;62.20;;;;;;5049181;28;82278;-43
2022/06/30 05:18:32;;;;;;;;;;;22.40;62.40;;;;;;5048032;28;83700;-42
2022/06/30 05:20:58;;;;;;;;;;;22.40;62.40;;;;;;5048493;28;82397;-44
2022/06/30 05:23:24;;;;;;;;;;;22.40;62.40;;;;;;5048057;27;83027;-44
2022/06/30 05:28:33;;;;;;;;;;;22.40;62.50;;;;;;5051060;28;81948;-44
2022/06/30 05:30:59;;;;;;;;;;;22.40;62.60;;;;;;5048324;28;83015;-44
2022/06/30 05:33:25;;;;;;;;;;;22.40;62.50;;;;;;5048447;28;82085;-43
2022/06/30 05:35:51;;;;;;;;;;;22.40;62.50;;;;;;5048230;27;82394;-44
2022/06/30 05:38:17;;;;;;;;;;;22.40;62.40;;;;;;5047984;28;82928;-44
2022/06/30 05:40:45;;;;;;;;;;;22.40;62.50;;;;;;5048148;28;81355;-44
2022/06/30 05:43:13;;;;;;;;;;;22.40;62.60;;;;;;5048112;27;81651;-44
2022/06/30 05:45:39;;;;;;;;;;;22.40;62.60;;;;;;5047557;28;82104;-43
2022/06/30 05:48:05;;;;;;;;;;;22.40;62.60;;;;;;5047149;28;83078;-43
2022/06/30 05:50:31;;;;;;;;;;;22.40;62.60;;;;;;5050628;27;83292;-44
2022/06/30 05:52:56;;;;;;;;;;;22.50;62.60;;;;;;5048302;28;82059;-44
2022/06/30 05:55:22;;;;;;;;;;;22.40;62.70;;;;;;5047004;27;83661;-44
2022/06/30 05:57:51;;;;;;;;;;;22.40;62.80;;;;;;5047817;28;83240;-44
2022/06/30 06:00:18;;;;;;;;;;;22.40;62.60;;;;;;5047622;28;82066;-44
2022/06/30 06:02:44;;;;;;;;;;;22.50;62.60;;;;;;5047859;27;83200;-43
2022/06/30 06:05:09;;;;;;;;;;;22.50;62.70;;;;;;5048298;28;82222;-43
2022/06/30 06:07:35;;;;;;;;;;;22.50;62.50;;;;;;5047679;28;82065;-43
2022/06/30 06:10:00;;;;;;;;;;;22.60;62.50;;;;;;5047348;27;83940;-44
2022/06/30 06:12:26;;;;;;;;;;;22.60;62.50;;;;;;5049817;28;83832;-43
2022/06/30 06:14:51;;;;;;;;;;;22.60;62.50;;;;;;5047563;28;83495;-43
2022/06/30 06:17:17;;;;;;;;;;;22.60;62.50;;;;;;5047623;28;82780;-44
2022/06/30 06:19:42;;;;;;;;;;;22.60;62.60;;;;;;5047641;28;82123;-42
2022/06/30 06:22:08;;;;;;;;;;;22.50;62.70;;;;;;5047596;28;81933;-44
2022/06/30 06:24:33;;;;;;;;;;;22.60;62.70;;;;;;5047383;28;82345;-43
2022/06/30 06:26:59;;;;;;;;;;;22.50;62.70;;;;;;5047441;28;82099;-43
2022/06/30 06:29:24;;;;;;;;;;;22.60;62.70;;;;;;5047914;28;82652;-43
2022/06/30 06:31:50;;;;;;;;;;;22.60;62.70;;;;;;5047087;28;83397;-43
2022/06/30 06:34:15;;;;;;;;;;;22.60;62.70;;;;;;5050129;28;81986;-42
2022/06/30 06:36:41;;;;;;;;;;;22.60;62.80;;;;;;5046595;28;83144;-43
2022/06/30 06:39:07;;;;;;;;;;;22.60;62.80;;;;;;5046995;28;82133;-44
2022/06/30 06:41:32;;;;;;;;;;;22.60;62.90;;;;;;5046796;27;83756;-44
2022/06/30 06:43:58;;;;;;;;;;;22.60;62.80;;;;;;5046769;28;82960;-43
2022/06/30 06:46:27;;;;;;;;;;;22.60;62.80;;;;;;5047181;28;82644;-43
2022/06/30 06:48:53;;;;;;;;;;;22.60;62.80;;;;;;5046840;28;82938;-43
2022/06/30 06:51:19;;;;;;;;;;;22.60;62.80;;;;;;5046628;28;83437;-44
2022/06/30 06:53:44;;;;;;;;;;;22.60;62.90;;;;;;5047559;28;81324;-43
2022/06/30 06:56:10;;;;;;;;;;;22.60;62.90;;;;;;5049360;28;82047;-43
2022/06/30 06:58:36;;;;;;;;;;;22.60;63.00;;;;;;5046643;28;82100;-45
2022/06/30 07:01:01;;;;;;;;;;;22.60;63.00;;;;;;5046302;27;83862;-43
2022/06/30 07:03:29;;;;;;;;;;;22.60;63.00;;;;;;5046736;28;82090;-44
2022/06/30 07:05:55;;;;;;;;;;;22.60;62.90;;;;;;5046520;28;82671;-44
2022/06/30 07:08:20;;;;;;;;;;;22.60;62.90;;;;;;5045472;27;82377;-43
2022/06/30 07:10:46;;;;;;;;;;;22.60;63.00;;;;;;5046583;28;82989;-43
2022/06/30 07:13:11;;;;;;;;;;;22.60;63.00;;;;;;5046750;28;82095;-43
2022/06/30 07:15:37;;;;;;;;;;;22.60;63.00;;;;;;5046629;28;82502;-44
2022/06/30 07:18:03;;;;;;;;;;;22.60;63.10;;;;;;5049738;28;82412;-44
2022/06/30 07:20:28;;;;;;;;;;;22.60;63.00;;;;;;5046540;27;83059;-44
2022/06/30 07:22:54;;;;;;;;;;;22.60;63.00;;;;;;5046400;28;83088;-43
2022/06/30 07:25:19;;;;;;;;;;;22.60;63.00;;;;;;5045550;28;83094;-43
2022/06/30 07:27:45;;;;;;;;;;;22.60;63.20;;;;;;5046532;27;83338;-44
2022/06/30 07:30:11;;;;;;;;;;;22.60;63.10;;;;;;5046496;28;83014;-43
2022/06/30 07:32:37;;;;;;;;;;;22.60;63.20;;;;;;5046479;28;81843;-43
2022/06/30 07:35:02;;;;;;;;;;;22.60;63.20;;;;;;5046521;28;82291;-43
2022/06/30 07:37:28;;;;;;;;;;;22.60;63.20;;;;;;5049066;28;82755;-43
2022/06/30 07:39:53;;;;;;;;;;;22.60;63.20;;;;;;5046069;28;82531;-43
2022/06/30 07:42:19;;;;;;;;;;;22.60;63.10;;;;;;5046758;28;82280;-44
2022/06/30 07:44:44;;;;;;;;;;;22.70;63.30;;;;;;5045987;28;82518;-43
2022/06/30 07:47:10;;;;;;;;;;;22.60;63.30;;;;;;5046325;27;82297;-43
2022/06/30 07:49:38;;;;;;;;;;;22.60;63.30;;;;;;5045263;28;85332;-42
2022/06/30 07:52:04;;;;;;;;;;;22.70;63.30;;;;;;5046018;28;82119;-45
2022/06/30 07:54:29;;;;;;;;;;;22.70;63.30;;;;;;5045936;27;83014;-44
2022/06/30 07:56:54;;;;;;;;;;;22.70;63.30;;;;;;5045877;28;83025;-43
2022/06/30 07:59:20;;;;;;;;;;;22.70;63.30;;;;;;5048771;28;82043;-43
2022/06/30 08:01:46;;;;;;;;;;;22.70;63.30;;;;;;5046031;28;82999;-43
2022/06/30 08:04:11;;;;;;;;;;;22.70;63.20;;;;;;5046130;28;81928;-44
2022/06/30 08:06:37;;;;;;;;;;;22.70;63.30;;;;;;5046272;27;83880;-43
2022/06/30 08:09:03;;;;;;;;;;;22.70;63.30;;;;;;5045584;28;82975;-44
2022/06/30 08:11:28;;;;;;;;;;;22.70;63.10;;;;;;5045954;28;81952;-43
2022/06/30 08:13:54;;;;;;;;;;;22.70;63.30;;;;;;5045462;28;82878;-44
2022/06/30 08:16:19;;;;;;;;;;;22.70;63.40;;;;;;5045971;28;83292;-43
2022/06/30 08:18:45;;;;;;;;;;;22.70;63.30;;;;;;5047579;27;81990;-43
2022/06/30 08:21:10;;;;;;;;;;;22.80;63.40;;;;;;5052133;28;82450;-44
2022/06/30 08:23:36;;;;;;;;;;;22.80;63.40;;;;;;5049553;28;82145;-44
2022/06/30 08:26:02;;;;;;;;;;;22.70;63.20;;;;;;5049018;27;82365;-42
2022/06/30 08:28:27;;;;;;;;;;;22.80;63.30;;;;;;5045525;28;87659;-43
2022/06/30 08:30:53;;;;;;;;;;;22.70;63.10;;;;;;5045973;28;86363;-43
2022/06/30 08:33:18;;;;;;;;;;;22.80;63.30;;;;;;5045917;28;87053;-43
2022/06/30 08:35:44;;;;;;;;;;;22.80;63.20;;;;;;5045493;28;88092;-43
2022/06/30 08:38:10;;;;;;;;;;;22.80;63.30;;;;;;5045354;28;88052;-43
2022/06/30 08:43:22;;;;;;;;;;;22.80;63.90;;;;;;5046406;28;87995;-44
2022/06/30 08:45:48;;;;;;;;;;;22.80;63.30;;;;;;5045554;28;88756;-44
2022/06/30 08:48:13;;;;;;;;;;;22.80;63.20;;;;;;5045276;28;87823;-44
2022/06/30 08:50:42;;;;;;;;;;;22.80;63.30;;;;;;5045665;28;87119;-43
2022/06/30 08:53:08;;;;;;;;;;;22.80;63.40;;;;;;5045546;27;87408;-43
2022/06/30 08:55:34;;;;;;;;;;;22.90;63.30;;;;;;5045758;28;87218;-43
2022/06/30 08:58:04;;;;;;;;;;;22.90;63.30;;;;;;5045121;28;87105;-45
2022/06/30 09:00:30;;;;;;;;;;;22.90;63.30;;;;;;5045573;28;87468;-44
2022/06/30 09:02:56;;;;;;;;;;;22.90;63.30;;;;;;5044257;28;88581;-43
2022/06/30 09:05:21;;;;;;;;;;;22.90;63.30;;;;;;5048227;28;87152;-42
2022/06/30 09:07:47;;;;;;;;;;;22.90;63.30;;;;;;5044549;28;88133;-43
2022/06/30 09:10:12;;;;;;;;;;;22.90;63.30;;;;;;5045201;28;86771;-44
2022/06/30 09:12:38;;;;;;;;;;;23.00;63.40;;;;;;5045432;28;87414;-43
2022/06/30 09:15:04;;;;;;;;;;;23.00;63.40;;;;;;5044782;28;87094;-43
2022/06/30 09:17:30;;;;;;;;;;;22.90;63.20;;;;;;5045066;28;87657;-43
2022/06/30 09:20:00;;;;;;;;;;;22.90;63.30;;;;;;5045672;27;87337;-43
2022/06/30 09:22:25;;;;;;;;;;;23.00;63.40;;;;;;5044351;28;89500;-43
2022/06/30 09:25:08;;;;;;;;;;;23.00;63.30;;;;;;5045183;28;87076;-44
2022/06/30 09:27:34;;;;;;;;;;;23.00;63.30;;;;;;5046833;27;88680;-43
2022/06/30 09:30:04;;;;;;;;;;;23.00;63.40;;;;;;5044081;28;87168;-44
2022/06/30 09:32:42;;;;;;;;;;;23.10;63.50;;;;;;5044716;27;88043;-44
2022/06/30 09:35:09;;;;;;;;;;;23.00;63.40;;;;;;5044390;28;87251;-44
2022/06/30 09:37:36;;;;;;;;;;;23.10;63.40;;;;;;5044673;28;87201;-44
2022/06/30 09:40:02;;;;;;;;;;;23.10;63.40;;;;;;5044598;27;89087;-43
2022/06/30 09:42:37;;;;;;;;;;;23.10;63.40;;;;;;5044478;28;89389;-43
2022/06/30 09:45:03;;;;;;;;;;;23.10;63.40;;;;;;5044466;28;86296;-44
2022/06/30 09:47:30;;;;;;;;;;;23.10;63.40;;;;;;5046699;28;88243;-44
2022/06/30 09:49:59;;;;;;;;;;;23.20;63.40;;;;;;5044729;28;87050;-43
2022/06/30 09:52:25;;;;;;;;;;;23.20;63.50;;;;;;5043863;28;87881;-44
2022/06/30 09:54:51;;;;;;;;;;;23.20;63.50;;;;;;5044272;28;87671;-44
2022/06/30 09:57:16;;;;;;;;;;;23.20;63.50;;;;;;5044767;28;87082;-45
2022/06/30 09:59:42;;;;;;;;;;;23.20;63.50;;;;;;5044657;28;87576;-43
2022/06/30 10:02:09;;;;;;;;;;;23.20;63.50;;;;;;5043844;28;87975;-43
2022/06/30 10:04:51;;;;;;;;;;;23.20;63.50;;;;;;5044255;28;87067;-44
2022/06/30 10:07:17;;;;;;;;;;;23.30;63.60;;;;;;5044140;28;87110;-44
2022/06/30 10:09:43;;;;;;;;;;;23.30;63.60;;;;;;5047557;28;87265;-43
2022/06/30 10:12:08;;;;;;;;;;;23.30;63.90;;;;;;5044471;27;87215;-43
2022/06/30 10:14:35;;;;;;;;;;;23.40;63.70;;;;;;5043615;28;88091;-43
2022/06/30 10:17:05;;;;;;;;;;;23.40;63.80;;;;;;5043472;28;88068;-43
2022/06/30 10:19:31;;;;;;;;;;;23.40;63.80;;;;;;5043860;27;89933;-44
2022/06/30 10:21:56;;;;;;;;;;;23.40;63.70;;;;;;5043820;28;88017;-43
2022/06/30 10:24:23;;;;;;;;;;;23.50;63.70;;;;;;5044096;28;86811;-43
2022/06/30 10:29:33;;;;;;;;;;;23.50;63.90;;;;;;5043979;28;87302;-43
2022/06/30 10:32:04;;;;;;;;;;;23.50;64.10;;;;;;5046840;28;87092;-44
2022/06/30 10:34:35;;;;;;;;;;;23.50;64.00;;;;;;5044015;28;87470;-43
2022/06/30 10:37:10;;;;;;;;;;;23.60;64.20;;;;;;5043750;28;87001;-43
2022/06/30 10:39:41;;;;;;;;;;;23.60;64.30;;;;;;5043615;27;87295;-44
2022/06/30 10:42:07;;;;;;;;;;;23.60;64.30;;;;;;5042843;27;88452;-43
2022/06/30 10:44:32;;;;;;;;;;;23.60;64.30;;;;;;5043385;28;87160;-45
2022/06/30 10:46:58;;;;;;;;;;;23.60;64.40;;;;;;5043767;28;87180;-43
2022/06/30 10:49:24;;;;;;;;;;;23.70;64.20;;;;;;5043524;28;88377;-43
2022/06/30 10:51:51;;;;;;;;;;;23.70;64.40;;;;;;5043716;28;87111;-43
2022/06/30 10:54:29;;;;;;;;;;;23.70;64.30;;;;;;5046130;27;87586;-44
2022/06/30 10:56:56;;;;;;;;;;;23.70;64.50;;;;;;5043267;28;87504;-43
2022/06/30 10:59:37;;;;;;;;;;;23.80;64.50;;;;;;5043954;27;88144;-44
2022/06/30 11:02:08;;;;;;;;;;;23.80;64.30;;;;;;5042993;28;88311;-41
2022/06/30 11:04:34;;;;;;;;;;;23.90;64.40;;;;;;5043130;28;87092;-43
2022/06/30 11:07:01;;;;;;;;;;;23.90;64.50;;;;;;5042736;27;88510;-43
2022/06/30 11:09:48;;;;;;;;;;;23.90;64.40;;;;;;5042750;28;87951;-43
2022/06/30 11:12:15;;;;;;;;;;;23.90;64.30;;;;;;5043201;28;87096;-43
2022/06/30 11:14:45;;;;;;;;;;;23.90;64.40;;;;;;5043191;27;87526;-44
2022/06/30 11:17:30;;;;;;;;;;;23.90;64.10;;;;;;5046043;28;88379;-43
2022/06/30 11:20:02;;;;;;;;;;;24.00;64.30;;;;;;5043398;28;87536;-43
2022/06/30 11:22:28;;;;;;;;;;;24.00;64.20;;;;;;5042960;28;87544;-43
2022/06/30 11:24:55;;;;;;;;;;;24.00;64.20;;;;;;5043664;28;86293;-43
2022/06/30 11:27:23;;;;;;;;;;;24.10;64.30;;;;;;5043208;27;86940;-42
2022/06/30 11:29:49;;;;;;;;;;;24.00;64.30;;;;;;5042595;28;89181;-43
2022/06/30 11:32:14;;;;;;;;;;;24.10;64.10;;;;;;5042309;28;88058;-44
2022/06/30 11:34:41;;;;;;;;;;;24.10;64.30;;;;;;5043117;27;88722;-43
2022/06/30 11:37:07;;;;;;;;;;;24.20;64.20;;;;;;5042506;28;88049;-43
2022/06/30 11:39:32;;;;;;;;;;;24.20;64.20;;;;;;5045783;28;86963;-44
2022/06/30 11:41:59;;;;;;;;;;;24.20;64.20;;;;;;5042678;28;87190;-43
2022/06/30 11:44:28;;;;;;;;;;;24.20;64.00;;;;;;5041072;28;87230;-43
2022/06/30 11:46:58;;;;;;;;;;;24.20;63.90;;;;;;5042895;28;87663;-43
2022/06/30 11:49:43;;;;;;;;;;;24.30;63.90;;;;;;5042707;28;88874;-44
2022/06/30 11:52:10;;;;;;;;;;;24.30;63.90;;;;;;5042591;28;87045;-43
2022/06/30 11:54:35;;;;;;;;;;;24.30;63.80;;;;;;5042130;28;87541;-43
2022/06/30 11:57:01;;;;;;;;;;;24.30;63.80;;;;;;5041738;28;88968;-43
2022/06/30 11:59:26;;;;;;;;;;;24.40;63.70;;;;;;5045711;28;87178;-43
2022/06/30 12:01:59;;;;;;;;;;;24.40;63.70;;;;;;5042417;28;87872;-43
2022/06/30 12:04:25;;;;;;;;;;;24.40;63.60;;;;;;5042360;28;87242;-43
2022/06/30 12:06:50;;;;;;;;;;;24.40;63.60;;;;;;5042750;28;87632;-43
2022/06/30 12:09:16;;;;;;;;;;;24.50;63.70;;;;;;5041861;28;88020;-43
2022/06/30 12:11:44;;;;;;;;;;;24.50;63.60;;;;;;5042351;28;87219;-43
2022/06/30 12:14:10;;;;;;;;;;;24.50;63.60;;;;;;5042964;28;87609;-43
2022/06/30 12:16:36;;;;;;;;;;;24.50;63.40;;;;;;5042112;28;88142;-44
2022/06/30 12:19:01;;;;;;;;;;;24.50;63.40;;;;;;5042624;28;87136;-44
2022/06/30 12:21:27;;;;;;;;;;;24.60;63.50;;;;;;5044397;28;87891;-43
2022/06/30 12:23:53;;;;;;;;;;;24.60;63.30;;;;;;5042665;28;87108;-42
2022/06/30 12:26:20;;;;;;;;;;;24.60;63.30;;;;;;5042184;27;87483;-43
2022/06/30 12:28:52;;;;;;;;;;;24.60;63.10;;;;;;5042035;28;89507;-43
2022/06/30 12:31:22;;;;;;;;;;;24.60;63.10;;;;;;5042199;28;87057;-43
2022/06/30 12:33:47;;;;;;;;;;;24.70;63.00;;;;;;5042126;27;89076;-43
2022/06/30 12:36:14;;;;;;;;;;;24.70;62.90;;;;;;5042081;28;87946;-43
2022/06/30 12:38:39;;;;;;;;;;;24.70;62.80;;;;;;5042740;28;86240;-44
2022/06/30 12:41:08;;;;;;;;;;;24.80;62.90;;;;;;5041911;28;86748;-43
2022/06/30 12:43:44;;;;;;;;;;;24.70;62.70;;;;;;5044675;28;89490;-43
2022/06/30 12:46:11;;;;;;;;;;;24.80;62.70;;;;;;5041388;28;87900;-43
2022/06/30 12:48:53;;;;;;;;;;;24.80;62.60;;;;;;5041545;28;88086;-43
2022/06/30 12:51:28;;;;;;;;;;;24.80;62.60;;;;;;5042013;28;87389;-43
2022/06/30 12:53:59;;;;;;;;;;;24.90;62.50;;;;;;5042134;28;87597;-43
2022/06/30 12:56:26;;;;;;;;;;;24.90;62.40;;;;;;5041490;28;89458;-43
2022/06/30 12:58:52;;;;;;;;;;;24.90;62.40;;;;;;5042185;28;87096;-43
2022/06/30 13:01:18;;;;;;;;;;;25.00;62.30;;;;;;5041956;28;87324;-44
2022/06/30 13:03:52;;;;;;;;;;;25.00;62.30;;;;;;5042332;28;87113;-44
2022/06/30 13:06:18;;;;;;;;;;;25.00;62.30;;;;;;5047250;28;87263;-43
2022/06/30 13:08:46;;;;;;;;;;;25.00;62.20;;;;;;5044797;28;87298;-44
2022/06/30 13:11:15;;;;;;;;;;;25.10;62.20;;;;;;5044201;28;88018;-43
2022/06/30 13:13:41;;;;;;;;;;;25.10;62.20;;;;;;5044991;27;89779;-43
2022/06/30 13:16:07;;;;;;;;;;;25.10;62.20;;;;;;5044878;28;87953;-44
2022/06/30 13:18:32;;;;;;;;;;;25.20;62.20;;;;;;5045166;28;87172;-43
2022/06/30 13:20:58;;;;;;;;;;;25.20;62.20;;;;;;5045240;28;87453;-44
2022/06/30 13:23:23;;;;;;;;;;;25.20;61.90;;;;;;5044998;28;87941;-43
2022/06/30 13:25:49;;;;;;;;;;;25.20;62.00;;;;;;5045228;28;87920;-44
2022/06/30 13:28:14;;;;;;;;;;;25.20;61.80;;;;;;5047946;28;87523;-43
2022/06/30 13:30:40;;;;;;;;;;;25.20;61.70;;;;;;5045076;28;87132;-41
2022/06/30 13:33:05;;;;;;;;;;;25.30;61.90;;;;;;5044696;27;89391;-43
2022/06/30 13:35:31;;;;;;;;;;;25.30;61.80;;;;;;5043622;28;89166;-43
2022/06/30 13:37:56;;;;;;;;;;;25.30;61.80;;;;;;5045116;28;87213;-43
2022/06/30 13:40:22;;;;;;;;;;;25.40;61.80;;;;;;5044544;28;88120;-44
2022/06/30 13:42:48;;;;;;;;;;;25.40;61.70;;;;;;5044504;28;87994;-43
2022/06/30 13:45:13;;;;;;;;;;;25.40;61.50;;;;;;5044376;28;87168;-45
2022/06/30 13:47:39;;;;;;;;;;;25.40;61.50;;;;;;5047338;28;87398;-43
2022/06/30 13:50:05;;;;;;;;;;;25.40;61.60;;;;;;5044496;28;87038;-43
2022/06/30 13:52:34;;;;;;;;;;;25.50;61.30;;;;;;5045105;28;87820;-43
2022/06/30 13:54:59;;;;;;;;;;;25.50;61.30;;;;;;5044342;28;88024;-44
2022/06/30 13:57:25;;;;;;;;;;;25.50;61.20;;;;;;5044367;28;87093;-43
2022/06/30 13:59:51;;;;;;;;;;;25.50;61.10;;;;;;5043861;27;87843;-42
2022/06/30 14:02:16;;;;;;;;;;;25.50;61.00;;;;;;5044146;28;88169;-43
2022/06/30 14:04:42;;;;;;;;;;;25.60;60.70;;;;;;5044171;28;87137;-43
2022/06/30 14:07:07;;;;;;;;;;;25.60;60.50;;;;;;5044659;28;87427;-43
2022/06/30 14:09:33;;;;;;;;;;;25.70;60.40;;;;;;5046406;28;89639;-43
2022/06/30 14:12:00;;;;;;;;;;;25.70;60.50;;;;;;5044573;28;87548;-44
2022/06/30 14:14:27;;;;;;;;;;;25.70;60.30;;;;;;5043646;28;89279;-43
2022/06/30 14:16:55;;;;;;;;;;;25.70;60.70;;;;;;5044517;28;86395;-43
2022/06/30 14:19:20;;;;;;;;;;;25.80;60.70;;;;;;5043881;28;87068;-44
2022/06/30 14:21:46;;;;;;;;;;;25.80;60.30;;;;;;5043929;28;88589;-44
2022/06/30 14:24:11;;;;;;;;;;;25.80;60.50;;;;;;5043688;28;88083;-43
2022/06/30 14:26:37;;;;;;;;;;;25.80;60.30;;;;;;5043888;27;89729;-43